Time;durP1;ratioP1;P1;durP2;ratioP2;P2;SDS_P1;SDS_P2;PMS_P1;PMS_P2;Temp;Humidity;BMP_temperature;BMP_pressure;BME280_temperature;BME280_humidity;BME280_pressure;Samples;Min_cycle;Max_cycle;Signal;HPM_P1;HPM_P2
2024/02/26 00:02:52;;;;;;;5.40;4.90;;;3.20;92.20;;;;;;6321426;28;20432;-60
2024/02/26 00:05:59;;;;;;;5.93;4.80;;;3.20;92.20;;;;;;6322194;28;20621;-61
2024/02/26 00:09:12;;;;;;;5.80;4.03;;;3.10;92.20;;;;;;6322061;28;20441;-63
2024/02/26 00:12:34;;;;;;;4.97;3.73;;;3.10;92.20;;;;;;6321627;28;20865;-60
2024/02/26 00:15:44;;;;;;;6.10;5.03;;;3.10;92.40;;;;;;6321762;28;20457;-63
2024/02/26 00:18:54;;;;;;;4.90;4.40;;;3.10;92.50;;;;;;6326347;28;20481;-62
2024/02/26 00:22:16;;;;;;;5.30;4.23;;;3.00;92.50;;;;;;6321912;28;20487;-61
2024/02/26 00:25:22;;;;;;;4.93;4.43;;;3.00;92.50;;;;;;6321479;28;20545;-62
2024/02/26 00:28:29;;;;;;;7.40;4.83;;;3.00;92.60;;;;;;6290506;28;20531;-59
2024/02/26 00:31:53;;;;;;;4.47;4.07;;;3.00;92.70;;;;;;6309635;28;20448;-60
2024/02/26 00:35:03;;;;;;;6.40;5.67;;;3.00;92.80;;;;;;6325010;28;20484;-60
2024/02/26 00:38:15;;;;;;;7.23;4.73;;;3.00;92.90;;;;;;6321380;28;20886;-60
2024/02/26 00:41:32;;;;;;;8.50;4.20;;;3.00;92.90;;;;;;6322108;28;20455;-60
2024/02/26 00:44:39;;;;;;;4.70;3.77;;;2.90;94.30;;;;;;6325392;28;20483;-59
2024/02/26 00:47:56;;;;;;;4.57;3.90;;;2.90;95.10;;;;;;6326453;28;20662;-61
2024/02/26 00:51:08;;;;;;;4.57;4.03;;;2.90;95.40;;;;;;6325825;28;20583;-60
2024/02/26 00:54:22;;;;;;;8.63;4.37;;;3.00;95.30;;;;;;6327826;28;20624;-60
2024/02/26 00:57:26;;;;;;;5.03;4.10;;;3.00;95.10;;;;;;6326624;28;20436;-62
2024/02/26 01:00:32;;;;;;;7.60;3.97;;;3.00;94.70;;;;;;6325490;28;20935;-62
2024/02/26 01:03:43;;;;;;;4.07;3.67;;;3.00;94.40;;;;;;6317593;28;20449;-62
2024/02/26 01:06:50;;;;;;;4.83;4.40;;;2.90;94.10;;;;;;6326483;28;20921;-60
2024/02/26 01:10:08;;;;;;;5.30;4.80;;;2.90;94.00;;;;;;6329120;28;20444;-61
2024/02/26 01:13:14;;;;;;;9.60;7.50;;;2.90;93.70;;;;;;6317684;28;20445;-62
2024/02/26 01:19:45;;;;;;;8.20;6.87;;;2.80;93.60;;;;;;6311269;28;20447;-61
2024/02/26 01:23:02;;;;;;;8.27;6.73;;;2.80;93.60;;;;;;6325436;28;20474;-59
2024/02/26 01:26:19;;;;;;;7.60;6.37;;;2.70;93.50;;;;;;6325296;28;20933;-60
2024/02/26 01:29:25;;;;;;;7.80;5.40;;;2.70;93.50;;;;;;6325164;28;20443;-62
2024/02/26 01:32:35;;;;;;;7.10;4.80;;;2.70;93.50;;;;;;6323229;28;21057;-60
2024/02/26 01:35:58;;;;;;;9.73;5.30;;;2.70;93.50;;;;;;6324762;28;20461;-60
2024/02/26 01:39:12;;;;;;;10.47;4.07;;;2.60;93.50;;;;;;6321674;28;20451;-60
2024/02/26 01:42:35;;;;;;;6.03;4.47;;;2.60;93.50;;;;;;6315545;28;20443;-59
2024/02/26 01:45:45;;;;;;;5.57;4.50;;;2.60;93.60;;;;;;6320436;28;21048;-60
2024/02/26 01:48:53;;;;;;;7.97;4.30;;;2.60;93.70;;;;;;6322156;28;20464;-60
2024/02/26 01:52:03;;;;;;;8.00;4.70;;;2.50;93.70;;;;;;6321291;28;20570;-59
2024/02/26 01:55:10;;;;;;;8.07;3.93;;;2.50;93.80;;;;;;6304945;28;20602;-61
2024/02/26 01:58:24;;;;;;;4.70;3.93;;;2.50;93.80;;;;;;6320487;28;20452;-59
2024/02/26 02:01:32;;;;;;;5.53;4.43;;;2.50;93.80;;;;;;6323538;28;20452;-59
2024/02/26 02:04:43;;;;;;;4.70;4.30;;;2.40;93.70;;;;;;6324315;28;20445;-60
2024/02/26 02:08:03;;;;;;;4.30;3.90;;;2.40;93.70;;;;;;6324038;28;20472;-60
2024/02/26 02:11:14;;;;;;;5.87;4.23;;;2.40;93.70;;;;;;6324694;28;20920;-60
2024/02/26 02:14:28;;;;;;;4.60;4.20;;;2.30;93.70;;;;;;6323769;28;20471;-60
2024/02/26 02:17:42;;;;;;;4.17;3.87;;;2.30;93.80;;;;;;6324299;28;20498;-60
2024/02/26 02:20:59;;;;;;;9.13;4.77;;;2.30;93.90;;;;;;6324152;28;20445;-60
2024/02/26 02:24:11;;;;;;;6.10;3.90;;;2.30;94.00;;;;;;6324122;28;20440;-60
2024/02/26 02:27:19;;;;;;;9.00;3.60;;;2.30;94.00;;;;;;6322461;28;21024;-60
2024/02/26 02:30:26;;;;;;;5.90;4.10;;;2.30;94.10;;;;;;6322434;28;20440;-60
2024/02/26 02:33:40;;;;;;;6.27;4.60;;;2.30;94.20;;;;;;6322394;28;20525;-59
2024/02/26 02:36:56;;;;;;;8.80;4.80;;;2.30;94.40;;;;;;6322744;28;20464;-60
2024/02/26 02:40:03;;;;;;;6.80;4.27;;;2.30;94.40;;;;;;6319994;28;20563;-59
2024/02/26 02:43:14;;;;;;;6.57;4.40;;;2.30;94.30;;;;;;6321589;28;20440;-59
2024/02/26 02:46:33;;;;;;;6.63;4.67;;;2.30;94.20;;;;;;6322038;28;20465;-60
2024/02/26 02:49:40;;;;;;;7.80;5.63;;;2.20;94.10;;;;;;6321812;28;21014;-59
2024/02/26 02:52:55;;;;;;;5.43;4.93;;;2.20;94.10;;;;;;6321887;28;20526;-60
2024/02/26 02:56:12;;;;;;;5.10;4.43;;;2.20;94.10;;;;;;6320661;28;20807;-59
2024/02/26 02:59:21;;;;;;;6.30;4.80;;;2.20;94.20;;;;;;6322786;28;20447;-59
2024/02/26 03:02:36;;;;;;;7.17;5.93;;;2.10;94.10;;;;;;6321959;28;20721;-60
2024/02/26 03:05:45;;;;;;;4.93;3.97;;;2.10;94.20;;;;;;6321740;28;20524;-59
2024/02/26 03:09:00;;;;;;;4.60;4.20;;;2.10;94.50;;;;;;6321307;28;20815;-60
2024/02/26 03:12:15;;;;;;;4.40;4.00;;;2.20;95.10;;;;;;6322134;28;20444;-60
2024/02/26 03:15:24;;;;;;;6.10;5.50;;;2.20;95.80;;;;;;6318045;28;20510;-60
2024/02/26 03:18:30;;;;;;;6.47;4.77;;;2.20;96.40;;;;;;6321399;28;20909;-60
2024/02/26 03:21:50;;;;;;;9.10;4.20;;;2.10;96.10;;;;;;6322064;28;20437;-60
2024/02/26 03:25:11;;;;;;;5.33;4.40;;;2.10;96.00;;;;;;6318332;28;20976;-60
2024/02/26 03:28:17;;;;;;;4.97;4.57;;;2.10;96.40;;;;;;6321731;28;20542;-60
2024/02/26 03:31:24;;;;;;;4.40;4.00;;;2.20;96.40;;;;;;6321820;28;20437;-60
2024/02/26 03:34:31;;;;;;;5.50;4.30;;;2.10;96.30;;;;;;6321463;28;20479;-61
2024/02/26 03:37:53;;;;;;;7.80;6.07;;;2.10;96.30;;;;;;6320824;28;20425;-58
2024/02/26 03:41:09;;;;;;;10.10;5.00;;;2.10;95.90;;;;;;6321157;28;20422;-60
2024/02/26 03:44:25;;;;;;;10.93;5.97;;;2.00;95.50;;;;;;6320833;28;20486;-60
2024/02/26 03:47:32;;;;;;;8.60;5.37;;;2.00;95.20;;;;;;6321404;28;20436;-60
2024/02/26 03:50:50;;;;;;;5.30;4.70;;;1.90;95.00;;;;;;6319678;28;20499;-59
2024/02/26 03:54:02;;;;;;;12.93;5.30;;;1.90;94.90;;;;;;6325020;28;20468;-60
2024/02/26 03:57:24;;;;;;;5.93;5.33;;;1.90;95.00;;;;;;6325612;28;20565;-60
2024/02/26 04:00:33;;;;;;;4.27;3.70;;;1.90;95.00;;;;;;6324869;28;20461;-58
2024/02/26 04:03:39;;;;;;;4.70;3.60;;;1.90;96.20;;;;;;6325511;28;20938;-59
2024/02/26 04:06:46;;;;;;;10.60;5.77;;;1.90;97.10;;;;;;6325555;28;20475;-59
2024/02/26 04:09:55;;;;;;;13.97;6.57;;;1.90;97.50;;;;;;6325321;28;20859;-59
2024/02/26 04:13:15;;;;;;;11.47;5.50;;;1.90;97.20;;;;;;6301610;28;20449;-60
2024/02/26 04:16:20;;;;;;;5.37;4.87;;;2.00;97.00;;;;;;6300505;28;20493;-59
2024/02/26 04:19:25;;;;;;;6.23;5.37;;;2.00;96.70;;;;;;6323812;28;20443;-60
2024/02/26 04:22:46;;;;;;;6.73;5.00;;;1.90;96.30;;;;;;6325112;28;20455;-60
2024/02/26 04:25:57;;;;;;;6.80;4.80;;;1.90;96.10;;;;;;6324717;28;20940;-59
2024/02/26 04:29:07;;;;;;;5.93;4.60;;;1.90;95.90;;;;;;6325818;28;20480;-60
2024/02/26 04:32:22;;;;;;;9.20;5.97;;;1.80;95.70;;;;;;6325265;28;20440;-58
2024/02/26 04:35:31;;;;;;;12.33;5.07;;;1.80;95.60;;;;;;6325085;28;20797;-59
2024/02/26 04:38:42;;;;;;;8.50;4.37;;;1.80;95.60;;;;;;6324140;28;20523;-59
2024/02/26 04:42:04;;;;;;;4.80;4.30;;;1.80;95.60;;;;;;6325666;28;20425;-59
2024/02/26 04:45:19;;;;;;;11.20;5.63;;;1.80;95.60;;;;;;6325453;28;20464;-59
2024/02/26 04:48:26;;;;;;;8.10;4.60;;;1.70;95.40;;;;;;6324914;28;20542;-59
2024/02/26 04:51:38;;;;;;;8.93;5.37;;;1.70;95.30;;;;;;6323766;28;20870;-58
2024/02/26 04:54:54;;;;;;;9.23;5.17;;;1.70;95.40;;;;;;6321018;28;20480;-60
2024/02/26 04:58:01;;;;;;;5.70;4.90;;;1.60;95.40;;;;;;6325117;28;20440;-60
2024/02/26 05:01:16;;;;;;;7.30;5.10;;;1.60;95.40;;;;;;6323750;28;20481;-60
2024/02/26 05:04:25;;;;;;;5.30;4.60;;;1.60;95.90;;;;;;6323970;28;20480;-59
2024/02/26 05:07:45;;;;;;;4.97;4.57;;;1.40;95.90;;;;;;6324595;28;20449;-60
2024/02/26 05:11:00;;;;;;;7.33;4.57;;;1.40;96.50;;;;;;6323206;28;20968;-60
2024/02/26 05:14:14;;;;;;;9.87;4.23;;;1.40;96.80;;;;;;6323947;28;20526;-58
2024/02/26 05:17:26;;;;;;;5.90;4.90;;;1.40;96.70;;;;;;6323561;28;21192;-58
2024/02/26 05:20:36;;;;;;;6.40;4.60;;;1.40;96.70;;;;;;6323759;28;21154;-59
2024/02/26 05:23:46;;;;;;;5.43;4.80;;;1.40;96.60;;;;;;6323934;28;20909;-59
2024/02/26 05:26:51;;;;;;;5.93;5.20;;;1.40;96.70;;;;;;6324198;28;20464;-59
2024/02/26 05:29:59;;;;;;;4.63;4.20;;;1.40;96.80;;;;;;6323673;28;20534;-58
2024/02/26 05:33:05;;;;;;;7.17;5.07;;;1.50;96.80;;;;;;6323228;28;20452;-59
2024/02/26 05:36:21;;;;;;;7.60;3.87;;;1.50;96.60;;;;;;6324223;28;20461;-59
2024/02/26 05:39:29;;;;;;;9.57;4.30;;;1.50;96.70;;;;;;6323974;28;20506;-59
2024/02/26 05:42:39;;;;;;;6.00;5.40;;;1.50;97.10;;;;;;6322911;28;20448;-60
2024/02/26 05:45:48;;;;;;;5.10;4.67;;;1.60;97.20;;;;;;6302093;28;20471;-59
2024/02/26 05:49:22;;;;;;;8.60;7.70;;;1.60;97.70;;;;;;6298959;28;20492;-60
2024/02/26 05:52:32;;;;;;;7.90;6.30;;;1.80;98.10;;;;;;6297367;28;20480;-59
2024/02/26 05:55:41;;;;;;;8.23;7.43;;;1.80;98.20;;;;;;6281003;28;20504;-60
2024/02/26 05:58:52;;;;;;;10.10;6.23;;;1.90;98.30;;;;;;6318282;28;20885;-60
2024/02/26 06:01:58;;;;;;;6.30;5.70;;;2.10;98.40;;;;;;6322693;28;20512;-59
2024/02/26 06:05:08;;;;;;;7.60;6.20;;;2.30;98.70;;;;;;6298297;28;21150;-59
2024/02/26 06:08:13;;;;;;;6.63;5.93;;;3.00;99.90;;;;;;6296983;28;20588;-60
2024/02/26 06:11:19;;;;;;;6.10;5.10;;;3.40;99.90;;;;;;6279955;28;20934;-61
2024/02/26 06:14:37;;;;;;;6.87;4.70;;;4.00;99.90;;;;;;6297413;28;20903;-60
2024/02/26 06:17:43;;;;;;;4.93;4.03;;;5.80;99.60;;;;;;6322669;28;20486;-60
2024/02/26 06:20:51;;;;;;;5.63;4.10;;;8.00;93.50;;;;;;6322751;28;20582;-60
2024/02/26 06:23:58;;;;;;;6.33;3.73;;;9.90;88.30;;;;;;6323098;28;20444;-61
2024/02/26 06:27:05;;;;;;;3.93;3.23;;;11.60;78.30;;;;;;6323302;28;20491;-61
2024/02/26 06:30:12;;;;;;;4.00;3.43;;;12.90;71.70;;;;;;6322499;28;20561;-59
2024/02/26 06:33:19;;;;;;;4.20;3.43;;;14.00;66.60;;;;;;6319353;28;20512;-61
2024/02/26 06:36:34;;;;;;;3.80;3.37;;;14.80;62.50;;;;;;6319924;28;20567;-60
2024/02/26 06:39:51;;;;;;;4.17;3.50;;;15.40;58.20;;;;;;6319517;28;20889;-60
2024/02/26 06:43:07;;;;;;;5.63;3.20;;;15.70;55.40;;;;;;6297161;28;20887;-59
2024/02/26 06:46:17;;;;;;;4.43;3.80;;;15.90;54.90;;;;;;6317913;28;20476;-60
2024/02/26 06:49:26;;;;;;;6.60;4.27;;;15.80;53.80;;;;;;6322020;28;20729;-61
2024/02/26 06:52:40;;;;;;;8.43;3.93;;;15.80;53.20;;;;;;6321100;28;20489;-60
2024/02/26 06:55:46;;;;;;;5.30;4.20;;;15.60;52.60;;;;;;6302714;28;20593;-60
2024/02/26 06:58:53;;;;;;;7.50;6.40;;;15.50;52.70;;;;;;6319814;28;20440;-60
2024/02/26 07:02:07;;;;;;;14.03;10.50;;;15.50;52.40;;;;;;6318844;28;20437;-60
2024/02/26 07:05:17;;;;;;;15.20;10.77;;;15.70;52.20;;;;;;6321145;28;20453;-60
2024/02/26 07:08:25;;;;;;;18.93;12.13;;;16.20;51.80;;;;;;6322009;28;20436;-60
2024/02/26 07:11:34;;;;;;;18.70;11.67;;;16.90;50.90;;;;;;6322496;28;20502;-60
2024/02/26 07:14:52;;;;;;;8.27;5.63;;;17.80;49.50;;;;;;6321652;28;20480;-60
2024/02/26 07:18:03;;;;;;;6.93;5.50;;;19.10;47.90;;;;;;6323845;28;20448;-61
2024/02/26 07:21:12;;;;;;;6.30;5.30;;;20.40;45.20;;;;;;6323513;28;20259;-61
2024/02/26 07:24:35;;;;;;;6.60;6.00;;;21.10;43.70;;;;;;6323144;28;20304;-60
2024/02/26 07:31:16;;;;;;;5.70;5.20;;;23.00;40.80;;;;;;6326352;28;20519;-61
2024/02/26 07:34:27;;;;;;;5.43;4.10;;;24.00;39.40;;;;;;6325397;28;20226;-61
2024/02/26 07:37:30;;;;;;;5.50;4.97;;;25.30;37.90;;;;;;6326362;28;20265;-61
2024/02/26 07:40:36;;;;;;;7.37;4.80;;;26.10;36.20;;;;;;6325757;28;20548;-61
2024/02/26 07:43:46;;;;;;;5.67;4.77;;;26.70;34.80;;;;;;6327384;28;20193;-61
2024/02/26 07:46:49;;;;;;;8.33;5.90;;;27.20;33.70;;;;;;6326387;28;20263;-61
2024/02/26 07:49:53;;;;;;;7.87;5.20;;;27.80;33.10;;;;;;6326861;28;20222;-61
2024/02/26 07:52:56;;;;;;;8.20;5.33;;;28.40;32.10;;;;;;6325617;28;20245;-60
2024/02/26 07:56:00;;;;;;;5.63;5.10;;;29.00;31.30;;;;;;6318288;28;20481;-60
2024/02/26 07:59:03;;;;;;;10.50;5.73;;;29.80;30.10;;;;;;6301224;28;20206;-62
2024/02/26 08:02:07;;;;;;;5.20;4.67;;;30.20;29.70;;;;;;6300712;28;20514;-61
2024/02/26 08:05:10;;;;;;;5.85;5.22;;;30.70;29.10;;;;;;6300592;28;20503;-61
2024/02/26 08:08:14;;;;;;;6.18;5.20;;;31.00;28.70;;;;;;6311847;28;20205;-61
2024/02/26 08:11:18;;;;;;;9.27;4.55;;;30.90;28.40;;;;;;6325974;28;20221;-62
2024/02/26 08:14:22;;;;;;;4.25;3.83;;;31.00;28.20;;;;;;6326918;28;20222;-62
2024/02/26 08:17:25;;;;;;;4.47;4.00;;;31.20;27.70;;;;;;6326529;28;20205;-60
2024/02/26 08:20:28;;;;;;;5.85;4.93;;;31.60;27.70;;;;;;6326219;28;20701;-61
2024/02/26 08:23:32;;;;;;;5.18;4.40;;;31.90;27.00;;;;;;6326585;28;20282;-61
2024/02/26 08:26:36;;;;;;;5.97;4.18;;;30.90;27.30;;;;;;6325739;28;20221;-61
2024/02/26 08:29:39;;;;;;;8.75;4.70;;;30.90;27.40;;;;;;6325212;28;20522;-61
2024/02/26 08:32:42;;;;;;;4.30;3.83;;;31.10;27.30;;;;;;6324545;28;20254;-62
2024/02/26 08:35:49;;;;;;;5.90;4.47;;;31.20;26.80;;;;;;6321419;28;20229;-63
2024/02/26 08:38:56;;;;;;;4.15;3.15;;;31.20;26.80;;;;;;6288458;28;20214;-62
2024/02/26 08:42:08;;;;;;;4.18;3.20;;;30.80;26.80;;;;;;6324192;28;20190;-62
2024/02/26 08:45:16;;;;;;;4.25;3.83;;;30.60;26.70;;;;;;6322609;28;20950;-63
2024/02/26 08:48:23;;;;;;;4.60;2.88;;;30.60;27.10;;;;;;6324494;28;20213;-62
2024/02/26 08:51:32;;;;;;;3.10;2.80;;;31.00;26.60;;;;;;6324628;28;20258;-63
2024/02/26 08:54:47;;;;;;;3.70;3.05;;;31.40;26.50;;;;;;6324259;28;20233;-62
2024/02/26 08:58:05;;;;;;;4.00;3.38;;;31.00;26.90;;;;;;6314540;28;20228;-64
2024/02/26 09:01:19;;;;;;;3.50;3.20;;;30.60;26.80;;;;;;6325724;28;20225;-61
2024/02/26 09:04:23;;;;;;;3.35;3.05;;;29.60;27.90;;;;;;6325171;28;20352;-68
2024/02/26 09:07:43;;;;;;;4.10;3.07;;;28.80;28.00;;;;;;6320893;28;20202;-66
2024/02/26 09:10:50;;;;;;;4.30;3.77;;;28.60;28.60;;;;;;6324340;28;20224;-66
2024/02/26 09:14:07;;;;;;;4.10;3.60;;;29.40;28.20;;;;;;6324270;28;20625;-66
2024/02/26 09:17:15;;;;;;;4.53;3.42;;;30.10;27.20;;;;;;6323415;28;20198;-66
2024/02/26 09:20:35;;;;;;;7.72;3.17;;;30.70;26.90;;;;;;6321984;28;20198;-65
2024/02/26 09:23:44;;;;;;;2.72;2.50;;;31.00;26.20;;;;;;6323106;28;20285;-65
2024/02/26 09:26:49;;;;;;;3.30;3.00;;;30.30;26.30;;;;;;6322440;28;20228;-66
2024/02/26 09:30:02;;;;;;;4.90;3.33;;;30.20;26.50;;;;;;6325100;28;20202;-66
2024/02/26 09:33:09;;;;;;;4.70;3.10;;;29.00;27.30;;;;;;6324419;28;20821;-65
2024/02/26 09:36:23;;;;;;;6.70;3.23;;;28.10;28.60;;;;;;6324780;28;20217;-66
2024/02/26 09:39:36;;;;;;;5.47;3.33;;;28.00;28.40;;;;;;6322681;28;20190;-66
2024/02/26 09:42:52;;;;;;;3.10;2.40;;;28.10;28.60;;;;;;6323378;28;20347;-65
2024/02/26 09:46:02;;;;;;;3.53;3.00;;;27.60;28.40;;;;;;6323222;28;20837;-67
2024/02/26 09:49:18;;;;;;;3.73;3.10;;;26.10;29.30;;;;;;6314307;28;20307;-66
2024/02/26 09:52:24;;;;;;;6.07;4.03;;;26.10;30.00;;;;;;6322340;28;20617;-68
2024/02/26 09:55:34;;;;;;;4.07;3.37;;;26.80;29.60;;;;;;6324086;28;20222;-69
2024/02/26 09:58:42;;;;;;;4.27;3.57;;;25.80;30.20;;;;;;6324343;28;20217;-66
2024/02/26 10:02:06;;;;;;;3.83;3.43;;;25.60;31.40;;;;;;6324774;28;20206;-65
2024/02/26 10:05:24;;;;;;;3.50;3.03;;;27.30;30.00;;;;;;6327196;28;20560;-67
2024/02/26 10:08:39;;;;;;;4.15;3.15;;;30.50;28.00;;;;;;6314180;28;20222;-64
2024/02/26 10:11:48;;;;;;;4.10;3.65;;;32.50;26.30;;;;;;6307024;28;20351;-67
2024/02/26 10:14:53;;;;;;;4.70;3.25;;;33.80;25.00;;;;;;6338148;28;20216;-66
2024/02/26 10:18:17;;;;;;;4.13;3.00;;;35.20;23.60;;;;;;6337000;28;20648;-66
2024/02/26 10:21:38;;;;;;;2.40;1.88;;;36.60;22.20;;;;;;6323107;28;20209;-65
2024/02/26 10:24:53;;;;;;;3.72;2.40;;;37.00;21.60;;;;;;6321878;28;20252;-67
2024/02/26 10:28:05;;;;;;;2.78;1.77;;;37.00;21.20;;;;;;6321608;28;20228;-68
2024/02/26 10:31:20;;;;;;;3.03;2.25;;;36.30;21.10;;;;;;6322415;28;20216;-68
2024/02/26 10:34:43;;;;;;;2.05;1.77;;;35.80;20.90;;;;;;6322301;28;20240;-69
2024/02/26 10:37:53;;;;;;;2.45;1.70;;;35.30;21.20;;;;;;6295801;28;20270;-66
2024/02/26 10:41:01;;;;;;;2.10;1.90;;;33.30;22.50;;;;;;6314668;28;20201;-66
2024/02/26 10:44:14;;;;;;;3.38;1.77;;;31.30;23.40;;;;;;6329981;28;20186;-67
2024/02/26 10:47:23;;;;;;;3.33;1.98;;;31.10;24.50;;;;;;6318678;28;20490;-65
2024/02/26 10:50:36;;;;;;;2.00;1.80;;;32.10;23.60;;;;;;6322400;28;20286;-68
2024/02/26 10:53:53;;;;;;;2.50;1.52;;;32.40;23.30;;;;;;6322132;28;20234;-67
2024/02/26 10:57:13;;;;;;;2.55;1.92;;;30.80;23.60;;;;;;6312015;28;20195;-67
2024/02/26 11:00:28;;;;;;;4.68;1.83;;;31.60;23.10;;;;;;6321850;28;20198;-66
2024/02/26 11:03:34;;;;;;;4.72;2.20;;;33.00;22.50;;;;;;6321287;28;20202;-67
2024/02/26 11:06:42;;;;;;;3.65;1.48;;;32.00;22.40;;;;;;6321928;28;20217;-65
2024/02/26 11:09:52;;;;;;;2.50;1.70;;;31.00;23.00;;;;;;6316939;28;20206;-68
2024/02/26 11:13:02;;;;;;;4.70;1.87;;;29.10;24.30;;;;;;6320773;28;20517;-66
2024/02/26 11:16:09;;;;;;;2.23;1.70;;;27.90;25.50;;;;;;6330404;28;20232;-66
2024/02/26 11:19:22;;;;;;;2.23;1.73;;;27.60;25.90;;;;;;6320514;28;20567;-66
2024/02/26 11:22:43;;;;;;;1.87;1.77;;;27.20;26.00;;;;;;6319289;28;20198;-67
2024/02/26 11:25:55;;;;;;;2.87;1.80;;;25.80;27.20;;;;;;6319939;28;20226;-66
2024/02/26 11:29:04;;;;;;;3.57;2.20;;;24.00;29.00;;;;;;6320320;28;20899;-65
2024/02/26 11:35:37;;;;;;;2.30;2.10;;;22.60;31.30;;;;;;6321179;28;20218;-65
2024/02/26 11:38:46;;;;;;;2.40;2.20;;;22.90;31.60;;;;;;6318334;28;20233;-65
2024/02/26 11:41:55;;;;;;;3.37;2.50;;;23.00;31.70;;;;;;6313730;28;20203;-66
2024/02/26 11:45:08;;;;;;;2.73;2.43;;;23.00;31.90;;;;;;6321284;28;20219;-66
2024/02/26 11:48:20;;;;;;;4.00;2.83;;;22.80;32.10;;;;;;6322215;28;20202;-66
2024/02/26 11:51:36;;;;;;;3.30;2.63;;;21.50;33.30;;;;;;6319876;28;20226;-65
2024/02/26 11:54:49;;;;;;;2.40;2.20;;;20.40;35.50;;;;;;6320767;28;20256;-65
2024/02/26 12:01:53;;;;;;;2.70;2.47;;;22.00;34.00;;;;;;6320983;28;20200;-66
2024/02/26 12:05:01;;;;;;;4.33;2.30;;;21.70;33.80;;;;;;6318180;28;20265;-66
2024/02/26 12:08:18;;;;;;;2.80;2.17;;;21.00;34.90;;;;;;6304908;28;20203;-65
2024/02/26 12:11:34;;;;;;;4.33;2.50;;;20.70;35.50;;;;;;6315764;28;20274;-65
2024/02/26 12:14:56;;;;;;;4.90;2.27;;;20.60;35.50;;;;;;6334702;28;20296;-65
2024/02/26 12:18:05;;;;;;;2.10;1.90;;;19.90;36.60;;;;;;6315764;28;20198;-65
2024/02/26 12:21:23;;;;;;;4.10;2.33;;;19.40;37.40;;;;;;6326104;28;20191;-65
2024/02/26 12:24:30;;;;;;;3.57;2.30;;;19.20;37.50;;;;;;6326958;28;20977;-65
2024/02/26 12:27:48;;;;;;;5.17;2.00;;;19.00;38.40;;;;;;6325999;28;20203;-64
2024/02/26 12:31:00;;;;;;;2.53;2.10;;;18.70;39.00;;;;;;6326743;28;20199;-65
2024/02/26 12:34:18;;;;;;;2.90;1.80;;;18.80;38.80;;;;;;6310912;28;20210;-65
2024/02/26 12:37:33;;;;;;;2.50;2.10;;;18.80;38.60;;;;;;6320239;28;20597;-65
2024/02/26 12:40:40;;;;;;;2.67;2.20;;;19.00;38.40;;;;;;6324153;28;20270;-65
2024/02/26 12:44:00;;;;;;;2.63;2.00;;;19.10;38.60;;;;;;6324771;28;20286;-65
2024/02/26 12:47:19;;;;;;;3.20;2.23;;;19.30;38.60;;;;;;6324431;28;20205;-65
2024/02/26 12:50:27;;;;;;;2.60;1.73;;;20.00;38.30;;;;;;6324333;28;20595;-65
2024/02/26 12:53:37;;;;;;;4.33;2.57;;;21.40;36.80;;;;;;6324347;28;20244;-66
2024/02/26 12:56:53;;;;;;;2.70;2.30;;;22.10;35.30;;;;;;6323504;28;20222;-66
2024/02/26 12:59:59;;;;;;;3.60;2.20;;;22.60;34.70;;;;;;6324971;28;20187;-66
2024/02/26 13:03:13;;;;;;;8.07;4.70;;;22.90;33.70;;;;;;6324798;28;20298;-65
2024/02/26 13:06:26;;;;;;;3.53;2.20;;;23.20;32.90;;;;;;6307711;28;20233;-66
2024/02/26 13:09:44;;;;;;;2.33;1.73;;;23.10;32.50;;;;;;6317342;28;20276;-65
2024/02/26 13:12:50;;;;;;;2.03;1.83;;;23.00;32.80;;;;;;6324295;28;20249;-65
2024/02/26 13:16:11;;;;;;;6.63;3.33;;;22.30;33.70;;;;;;6340123;28;20756;-65
2024/02/26 13:19:19;;;;;;;2.73;1.80;;;21.70;34.10;;;;;;6321843;28;20308;-66
2024/02/26 13:22:43;;;;;;;1.63;1.50;;;21.30;35.00;;;;;;6318310;28;20210;-66
2024/02/26 13:25:57;;;;;;;1.87;1.67;;;20.60;35.20;;;;;;6321155;28;20214;-65
2024/02/26 13:29:20;;;;;;;5.33;2.00;;;19.90;35.80;;;;;;6318418;28;20225;-67
2024/02/26 13:32:44;;;;;;;3.23;1.60;;;19.60;36.30;;;;;;6323719;28;20215;-66
2024/02/26 13:35:50;;;;;;;1.77;1.33;;;19.30;37.20;;;;;;6321203;28;20230;-67
2024/02/26 13:38:59;;;;;;;2.60;1.50;;;19.00;36.90;;;;;;6322816;28;20202;-63
2024/02/26 13:42:07;;;;;;;2.07;1.87;;;18.50;37.80;;;;;;6318162;28;20209;-66
2024/02/26 13:45:23;;;;;;;3.27;2.00;;;17.90;39.10;;;;;;6322467;28;20306;-66
2024/02/26 13:48:35;;;;;;;3.57;1.60;;;17.20;40.50;;;;;;6322657;28;20229;-68
2024/02/26 13:51:43;;;;;;;4.33;1.73;;;17.00;41.20;;;;;;6321997;28;20441;-66
2024/02/26 13:54:59;;;;;;;4.37;1.83;;;16.90;41.10;;;;;;6319273;28;20563;-65
2024/02/26 13:58:07;;;;;;;1.50;1.40;;;16.40;41.70;;;;;;6299056;28;20978;-64
2024/02/26 14:01:23;;;;;;;3.13;1.80;;;16.10;42.30;;;;;;6318120;28;20493;-66
2024/02/26 14:04:44;;;;;;;1.83;1.50;;;16.00;42.90;;;;;;6322111;28;20471;-67
2024/02/26 14:08:04;;;;;;;2.33;1.77;;;15.90;42.70;;;;;;6321649;28;20452;-64
2024/02/26 14:11:13;;;;;;;1.50;1.30;;;15.60;43.00;;;;;;6317684;28;20447;-65
2024/02/26 14:14:38;;;;;;;1.40;1.30;;;15.50;43.10;;;;;;6317533;28;20532;-64
2024/02/26 14:17:44;;;;;;;2.17;1.20;;;15.40;43.50;;;;;;6303056;28;20502;-65
2024/02/26 14:21:02;;;;;;;1.50;1.20;;;15.30;43.00;;;;;;6300602;28;20482;-64
2024/02/26 14:24:09;;;;;;;2.97;1.20;;;15.40;42.80;;;;;;6319648;28;20468;-65
2024/02/26 14:27:29;;;;;;;1.87;1.40;;;15.40;42.20;;;;;;6318676;28;20513;-66
2024/02/26 14:30:39;;;;;;;2.00;1.33;;;15.50;41.70;;;;;;6308868;28;20445;-66
2024/02/26 14:33:54;;;;;;;2.30;1.27;;;15.60;41.50;;;;;;6304760;28;20490;-67
2024/02/26 14:52:28;;;;;;;2.30;1.60;;;14.10;44.70;;;;;;6356901;27;20611;-66
2024/02/26 14:55:35;;;;;;;2.90;1.60;;;13.70;45.90;;;;;;6327166;28;20487;-66
2024/02/26 14:58:42;;;;;;;1.70;1.43;;;13.60;45.90;;;;;;6317397;28;20444;-63
2024/02/26 15:01:50;;;;;;;1.57;1.27;;;13.50;46.10;;;;;;6308085;28;20437;-66
2024/02/26 15:05:04;;;;;;;2.27;1.50;;;13.40;46.20;;;;;;6295317;28;20972;-67
2024/02/26 15:08:23;;;;;;;3.37;2.00;;;13.30;46.70;;;;;;6312048;28;20447;-67
2024/02/26 15:11:35;;;;;;;1.40;1.30;;;13.10;47.10;;;;;;6319631;28;20815;-67
2024/02/26 15:14:50;;;;;;;2.20;1.43;;;13.10;47.40;;;;;;6320214;28;20473;-67
2024/02/26 15:17:57;;;;;;;3.33;2.13;;;12.90;47.90;;;;;;6309809;28;20438;-65
2024/02/26 15:21:18;;;;;;;1.40;1.30;;;12.80;48.10;;;;;;6294140;28;20500;-65
2024/02/26 15:24:33;;;;;;;1.60;1.50;;;12.80;48.10;;;;;;6302318;28;20468;-67
2024/02/26 15:27:38;;;;;;;2.40;1.80;;;12.80;48.30;;;;;;6319412;28;20449;-67
2024/02/26 15:30:53;;;;;;;2.50;1.13;;;12.90;48.20;;;;;;6319320;28;20467;-67
2024/02/26 15:34:00;;;;;;;2.20;1.50;;;12.90;48.50;;;;;;6317303;28;20528;-67
2024/02/26 15:37:14;;;;;;;3.03;1.63;;;12.90;48.90;;;;;;6295502;28;20842;-68
2024/02/26 15:40:27;;;;;;;1.97;1.60;;;12.80;49.00;;;;;;6294708;28;20530;-67
2024/02/26 15:43:34;;;;;;;2.07;1.30;;;12.50;49.50;;;;;;6307399;28;20486;-67
2024/02/26 15:46:43;;;;;;;3.40;1.77;;;12.40;49.50;;;;;;6322077;28;20505;-66
2024/02/26 15:49:54;;;;;;;3.27;2.30;;;12.30;49.70;;;;;;6321000;28;20476;-66
2024/02/26 15:53:11;;;;;;;2.00;1.03;;;12.20;50.00;;;;;;6319614;28;20449;-65
2024/02/26 15:56:24;;;;;;;3.97;1.40;;;12.20;50.30;;;;;;6325902;28;20561;-67
2024/02/26 15:59:38;;;;;;;2.20;2.00;;;12.10;50.40;;;;;;6345728;28;20451;-67
2024/02/26 16:02:51;;;;;;;1.83;1.50;;;12.00;50.80;;;;;;6335361;28;20734;-66
2024/02/26 16:05:58;;;;;;;1.70;1.60;;;11.90;50.90;;;;;;6329166;28;20469;-67
2024/02/26 16:09:12;;;;;;;2.70;1.60;;;11.90;51.40;;;;;;6313898;28;20448;-66
2024/02/26 16:12:42;;;;;;;1.80;1.30;;;11.80;51.40;;;;;;6304928;28;20465;-67
2024/02/26 16:16:06;;;;;;;2.30;2.10;;;11.70;51.80;;;;;;6301234;28;20552;-67
2024/02/26 16:19:14;;;;;;;2.80;1.33;;;11.50;52.20;;;;;;6301685;28;20452;-67
2024/02/26 16:22:26;;;;;;;2.17;1.90;;;11.50;52.80;;;;;;6298561;28;20646;-67
2024/02/26 16:25:34;;;;;;;2.10;1.70;;;11.40;53.20;;;;;;6311039;28;20556;-67
2024/02/26 16:28:54;;;;;;;2.40;1.83;;;11.30;53.50;;;;;;6307977;28;20903;-66
2024/02/26 16:32:10;;;;;;;2.20;2.10;;;11.20;53.70;;;;;;6307514;28;20810;-68
2024/02/26 16:35:21;;;;;;;2.57;2.20;;;11.30;53.80;;;;;;6304342;28;20462;-68
2024/02/26 16:38:33;;;;;;;5.40;3.40;;;11.30;54.00;;;;;;6275494;28;20754;-66
2024/02/26 16:41:42;;;;;;;6.37;3.20;;;11.20;54.10;;;;;;6287355;28;20469;-67
2024/02/26 16:45:03;;;;;;;6.63;4.37;;;11.30;54.20;;;;;;6295797;28;20542;-65
2024/02/26 16:48:11;;;;;;;3.60;2.80;;;11.30;54.20;;;;;;6294988;28;20469;-65
2024/02/26 16:51:18;;;;;;;7.80;3.73;;;11.40;54.30;;;;;;6295890;28;20579;-65
2024/02/26 16:54:27;;;;;;;5.00;2.93;;;11.40;54.30;;;;;;6297435;28;20466;-65
2024/02/26 16:57:34;;;;;;;4.90;3.87;;;11.40;54.40;;;;;;6296143;28;20460;-64
2024/02/26 17:00:49;;;;;;;3.57;2.83;;;11.40;54.70;;;;;;6300744;28;20472;-64
2024/02/26 17:03:56;;;;;;;2.90;2.23;;;11.40;54.80;;;;;;6299743;28;20712;-65
2024/02/26 17:07:01;;;;;;;4.43;2.17;;;11.30;55.10;;;;;;6299589;28;20445;-65
2024/02/26 17:10:06;;;;;;;3.47;2.40;;;11.30;55.40;;;;;;6299589;28;20538;-65
2024/02/26 17:13:12;;;;;;;6.40;3.20;;;11.30;55.50;;;;;;6299108;28;20496;-66